createdAt,value
2022-12-29T00:01:11.347Z,3.80
2022-12-29T00:03:39.705Z,4.20
2022-12-29T00:06:09.400Z,5.50
2022-12-29T00:08:46.144Z,4.00
2022-12-29T00:11:15.774Z,4.30
2022-12-29T00:14:02.013Z,4.30
2022-12-29T00:16:31.137Z,4.20
2022-12-29T00:18:59.688Z,4.10
2022-12-29T00:21:47.175Z,4.10
2022-12-29T00:24:36.083Z,4.00
2022-12-29T00:27:31.490Z,4.30
2022-12-29T00:30:18.035Z,4.10
2022-12-29T00:33:03.666Z,4.10
2022-12-29T00:35:34.434Z,4.10
2022-12-29T00:38:24.639Z,4.10
2022-12-29T00:41:15.341Z,4.20
2022-12-29T00:44:01.140Z,4.10
2022-12-29T00:46:29.395Z,4.10
2022-12-29T00:49:14.839Z,4.10
2022-12-29T00:51:43.101Z,3.70
2022-12-29T00:54:12.883Z,4.20
2022-12-29T00:56:42.367Z,5.40
2022-12-29T00:59:12.328Z,3.60
2022-12-29T01:01:41.275Z,4.50
2022-12-29T01:04:10.090Z,4.80
2022-12-29T01:06:39.192Z,6.10
2022-12-29T01:09:25.120Z,5.50
2022-12-29T01:11:54.770Z,4.00
2022-12-29T01:14:24.015Z,5.60
2022-12-29T01:16:52.672Z,6.30
2022-12-29T01:19:21.052Z,6.80
2022-12-29T01:21:49.937Z,6.50
2022-12-29T01:24:19.100Z,6.90
2022-12-29T01:26:47.934Z,7.20
2022-12-29T01:29:17.993Z,7.40
2022-12-29T01:31:46.468Z,7.70
2022-12-29T01:34:15.263Z,7.90
2022-12-29T01:36:44.298Z,8.00
2022-12-29T01:39:12.483Z,8.30
2022-12-29T01:41:40.758Z,9.10
2022-12-29T01:44:46.253Z,9.80
2022-12-29T01:47:18.406Z,8.60
2022-12-29T01:49:46.812Z,8.60
2022-12-29T01:52:15.288Z,8.70
2022-12-29T01:54:49.042Z,8.90
2022-12-29T01:57:22.651Z,8.90
2022-12-29T01:59:56.002Z,10.00
2022-12-29T02:02:26.439Z,9.30
2022-12-29T02:05:01.363Z,9.70
2022-12-29T02:07:33.391Z,9.10
2022-12-29T02:10:02.832Z,9.00
2022-12-29T02:12:31.097Z,9.10
2022-12-29T02:15:02.807Z,9.10
2022-12-29T02:17:49.052Z,9.20
2022-12-29T02:20:50.885Z,9.10
2022-12-29T02:23:42.583Z,9.30
2022-12-29T02:26:35.473Z,9.20
2022-12-29T02:29:45.493Z,9.10
2022-12-29T02:32:23.790Z,9.30
2022-12-29T02:35:00.165Z,9.30
2022-12-29T02:37:35.263Z,9.20
2022-12-29T02:40:09.549Z,9.30
2022-12-29T02:42:43.694Z,9.80
2022-12-29T02:45:20.423Z,9.00
2022-12-29T02:47:53.245Z,9.30
2022-12-29T02:50:25.528Z,9.30
2022-12-29T02:52:58.919Z,9.40
2022-12-29T02:55:26.173Z,9.40
2022-12-29T02:58:17.351Z,10.00
2022-12-29T03:00:56.284Z,9.50
2022-12-29T03:03:40.514Z,9.60
2022-12-29T03:06:23.767Z,9.40
2022-12-29T03:08:57.546Z,9.20
2022-12-29T03:11:52.369Z,9.80
2022-12-29T03:14:48.820Z,9.90
2022-12-29T03:17:26.670Z,9.40
2022-12-29T03:20:06.244Z,9.60
2022-12-29T03:22:38.626Z,9.70
2022-12-29T03:25:11.947Z,10.30
2022-12-29T03:27:44.057Z,9.80
2022-12-29T03:30:13.952Z,9.90
2022-12-29T03:32:46.662Z,9.80
2022-12-29T03:35:18.716Z,10.50
2022-12-29T03:37:53.444Z,10.10
2022-12-29T03:40:25.141Z,10.50
2022-12-29T03:42:55.152Z,10.00
2022-12-29T03:45:23.248Z,10.00
2022-12-29T03:47:51.645Z,10.20
2022-12-29T03:50:21.313Z,10.40
2022-12-29T03:52:49.601Z,10.10
2022-12-29T03:55:17.837Z,10.20
2022-12-29T03:57:46.783Z,10.60
2022-12-29T04:00:16.139Z,10.50
2022-12-29T04:02:46.725Z,10.10
2022-12-29T04:05:15.206Z,10.00
2022-12-29T04:07:44.735Z,10.10
2022-12-29T04:10:12.868Z,10.40
2022-12-29T04:12:42.665Z,10.10
2022-12-29T04:15:12.049Z,9.80
2022-12-29T04:17:40.272Z,9.90
2022-12-29T04:20:26.399Z,9.90
2022-12-29T04:23:02.075Z,9.90
2022-12-29T04:25:30.187Z,9.90
2022-12-29T04:27:58.331Z,10.40
2022-12-29T04:30:26.518Z,9.80
2022-12-29T04:32:54.664Z,9.90
2022-12-29T04:35:22.812Z,9.90
2022-12-29T04:37:50.973Z,9.80
2022-12-29T04:40:20.534Z,9.80
2022-12-29T04:42:48.691Z,10.50
2022-12-29T04:45:17.019Z,9.80
2022-12-29T04:47:45.666Z,9.70
2022-12-29T04:50:14.211Z,9.70
2022-12-29T04:52:42.436Z,9.70
2022-12-29T04:55:11.141Z,9.60
2022-12-29T04:57:40.763Z,10.10
2022-12-29T05:00:10.968Z,10.00
2022-12-29T05:02:39.298Z,9.60
2022-12-29T05:05:08.482Z,9.80
2022-12-29T05:07:36.780Z,9.50
2022-12-29T05:10:05.609Z,9.50
2022-12-29T05:12:34.264Z,9.60
2022-12-29T05:15:04.222Z,9.50
2022-12-29T05:17:32.501Z,9.60
2022-12-29T05:20:00.988Z,9.60
2022-12-29T05:22:29.123Z,9.50
2022-12-29T05:24:57.265Z,9.50
2022-12-29T05:27:25.413Z,9.40
2022-12-29T05:29:53.564Z,9.80
2022-12-29T05:32:23.095Z,9.20
2022-12-29T05:34:51.338Z,9.20
2022-12-29T05:37:19.527Z,9.10
2022-12-29T05:39:47.654Z,9.00
2022-12-29T05:42:15.769Z,9.00
2022-12-29T05:44:43.846Z,9.00
2022-12-29T05:47:11.951Z,9.00
2022-12-29T05:49:41.504Z,9.00
2022-12-29T05:52:09.619Z,8.90
2022-12-29T05:54:37.773Z,9.00
2022-12-29T05:57:05.895Z,8.70
2022-12-29T05:59:34.098Z,9.10
2022-12-29T06:02:02.463Z,8.90
2022-12-29T06:04:30.709Z,8.80
2022-12-29T06:07:00.218Z,8.80
2022-12-29T06:09:28.324Z,9.00
2022-12-29T06:11:56.744Z,8.70
2022-12-29T06:14:24.875Z,9.00
2022-12-29T06:16:53.060Z,9.00
2022-12-29T06:19:21.381Z,9.10
2022-12-29T06:21:49.476Z,8.90
2022-12-29T06:24:19.023Z,9.20
2022-12-29T06:26:47.142Z,8.70
2022-12-29T06:29:17.828Z,9.20
2022-12-29T06:31:47.247Z,9.10
2022-12-29T06:34:18.475Z,9.80
2022-12-29T06:36:46.582Z,9.10
2022-12-29T06:39:14.902Z,9.10
2022-12-29T06:41:44.511Z,9.10
2022-12-29T06:44:12.741Z,9.10
2022-12-29T06:46:40.952Z,9.40
2022-12-29T06:49:09.053Z,9.60
2022-12-29T06:51:37.108Z,9.50
2022-12-29T06:54:05.448Z,9.40
2022-12-29T06:56:33.651Z,9.30
2022-12-29T06:59:03.115Z,9.50
2022-12-29T07:01:31.392Z,9.30
2022-12-29T07:03:59.673Z,9.30
2022-12-29T07:06:27.867Z,9.30
2022-12-29T07:08:56.236Z,9.00
2022-12-29T07:11:24.423Z,9.20
2022-12-29T07:13:52.791Z,9.40
2022-12-29T07:16:22.443Z,9.10
2022-12-29T07:18:50.660Z,9.30
2022-12-29T07:21:19.437Z,9.30
2022-12-29T07:23:50.367Z,9.30
2022-12-29T07:26:19.312Z,9.70
2022-12-29T07:28:47.952Z,9.40
2022-12-29T07:31:18.156Z,9.60
2022-12-29T07:33:48.656Z,9.40
2022-12-29T07:36:18.224Z,9.40
2022-12-29T07:38:46.685Z,9.30
2022-12-29T07:41:14.958Z,9.50
2022-12-29T07:43:43.650Z,9.40
2022-12-29T07:46:54.040Z,9.50
2022-12-29T07:49:01.880Z,9.50
2022-12-29T07:51:29.943Z,9.50
2022-12-29T07:54:00.316Z,9.70
2022-12-29T07:56:28.459Z,9.90
2022-12-29T07:59:06.125Z,9.80
2022-12-29T08:01:34.447Z,9.90
2022-12-29T08:04:04.080Z,10.00
2022-12-29T08:06:32.245Z,10.00
2022-12-29T08:09:11.094Z,10.10
2022-12-29T08:11:41.749Z,10.10
2022-12-29T08:14:09.915Z,10.20
2022-12-29T08:16:38.102Z,10.20
2022-12-29T08:19:07.707Z,10.30
2022-12-29T08:21:36.144Z,10.30
2022-12-29T08:24:04.595Z,10.30
2022-12-29T08:26:32.711Z,10.30
2022-12-29T08:29:00.876Z,10.40
2022-12-29T08:31:29.213Z,10.50
2022-12-29T08:33:57.391Z,10.60
2022-12-29T08:36:26.976Z,10.60
2022-12-29T08:38:55.069Z,10.70
2022-12-29T08:41:23.201Z,10.70
2022-12-29T08:43:52.067Z,10.70
2022-12-29T08:46:20.497Z,10.90
2022-12-29T08:48:48.768Z,10.70
2022-12-29T08:51:22.764Z,10.80
2022-12-29T08:53:54.714Z,10.70
2022-12-29T08:56:24.738Z,10.70
2022-12-29T08:58:53.109Z,10.70
2022-12-29T09:01:21.632Z,10.90
2022-12-29T09:06:40.692Z,10.70
2022-12-29T09:09:10.479Z,10.70
2022-12-29T09:11:38.744Z,10.70
2022-12-29T09:14:06.880Z,10.70
2022-12-29T09:16:35.973Z,10.20
2022-12-29T09:19:04.542Z,10.70
2022-12-29T09:21:32.850Z,11.10
2022-12-29T09:24:00.965Z,10.80
2022-12-29T09:26:30.515Z,10.90
2022-12-29T09:28:58.965Z,11.00
2022-12-29T09:31:27.327Z,11.10
2022-12-29T09:33:55.438Z,11.10
2022-12-29T09:36:23.660Z,11.50
2022-12-29T09:38:52.264Z,11.30
2022-12-29T09:41:25.732Z,11.60
2022-12-29T09:44:08.054Z,10.90
2022-12-29T09:46:40.406Z,11.50
2022-12-29T09:49:24.736Z,11.50
2022-12-29T09:51:55.385Z,11.70
2022-12-29T09:54:45.586Z,11.30
2022-12-29T09:57:23.727Z,11.80
2022-12-29T09:59:57.826Z,12.10
2022-12-29T10:02:39.036Z,11.80
2022-12-29T10:05:20.320Z,11.80
2022-12-29T10:07:58.533Z,11.70
2022-12-29T10:10:36.104Z,11.70
2022-12-29T10:13:15.310Z,11.80
2022-12-29T10:15:57.915Z,11.90
2022-12-29T10:19:10.144Z,11.70
2022-12-29T10:21:53.962Z,11.60
2022-12-29T10:24:24.212Z,11.70
2022-12-29T10:26:54.163Z,11.50
2022-12-29T10:29:24.361Z,11.70
2022-12-29T10:32:00.949Z,11.70
2022-12-29T10:34:34.413Z,11.70
2022-12-29T10:37:07.488Z,11.70
2022-12-29T10:39:42.903Z,11.70
2022-12-29T10:42:17.605Z,11.30
2022-12-29T10:44:45.835Z,11.80
2022-12-29T10:47:21.106Z,11.60
2022-12-29T10:49:50.527Z,11.70
2022-12-29T10:52:22.139Z,11.60
2022-12-29T10:54:53.616Z,11.40
2022-12-29T10:57:29.423Z,11.60
2022-12-29T10:59:57.666Z,11.80
2022-12-29T11:02:54.413Z,11.90
2022-12-29T11:05:27.540Z,11.90
2022-12-29T11:08:00.215Z,11.90
2022-12-29T11:10:38.046Z,12.00
2022-12-29T11:13:14.028Z,12.10
2022-12-29T11:15:43.615Z,12.20
2022-12-29T11:18:25.269Z,12.20
2022-12-29T11:20:55.188Z,12.20
2022-12-29T11:23:27.410Z,12.20
2022-12-29T11:26:18.892Z,12.20
2022-12-29T11:28:49.310Z,12.20
2022-12-29T11:31:24.129Z,12.10
2022-12-29T11:33:53.689Z,12.30
2022-12-29T11:36:25.405Z,12.10
2022-12-29T11:38:55.703Z,12.00
2022-12-29T11:41:26.850Z,11.90
2022-12-29T11:43:57.681Z,11.90
2022-12-29T11:46:29.564Z,12.30
2022-12-29T11:49:01.552Z,11.80
2022-12-29T11:51:32.815Z,11.80
2022-12-29T11:54:03.795Z,11.90
2022-12-29T11:56:40.771Z,11.90
2022-12-29T11:59:52.277Z,11.70
2022-12-29T12:02:42.001Z,11.70
2022-12-29T12:05:27.989Z,11.60
2022-12-29T12:08:01.843Z,11.50
2022-12-29T12:10:34.973Z,11.60
2022-12-29T12:13:16.628Z,11.50
2022-12-29T12:15:54.503Z,11.30
2022-12-29T12:18:41.676Z,11.70
2022-12-29T12:21:18.754Z,11.50
2022-12-29T12:24:20.799Z,11.90
2022-12-29T12:26:59.943Z,11.60
2022-12-29T12:29:36.748Z,11.60
2022-12-29T12:32:13.749Z,11.80
2022-12-29T12:34:44.985Z,11.90
2022-12-29T12:37:54.962Z,11.90
2022-12-29T12:40:37.714Z,11.90
2022-12-29T12:43:27.570Z,11.80
2022-12-29T12:46:11.266Z,11.80
2022-12-29T12:48:55.319Z,11.70
2022-12-29T12:51:33.728Z,11.40
2022-12-29T12:54:14.171Z,11.60
2022-12-29T12:56:55.527Z,11.60
2022-12-29T12:59:37.988Z,11.60
2022-12-29T13:02:18.172Z,12.00
2022-12-29T13:05:08.915Z,11.70
2022-12-29T13:07:46.812Z,12.20
2022-12-29T13:10:39.116Z,11.70
2022-12-29T13:13:26.878Z,11.70
2022-12-29T13:16:02.785Z,11.60
2022-12-29T13:18:39.748Z,11.60
2022-12-29T13:21:30.777Z,11.60
2022-12-29T13:24:03.801Z,11.60
2022-12-29T13:26:37.662Z,11.60
2022-12-29T13:29:18.607Z,12.20
2022-12-29T13:31:53.587Z,11.70
2022-12-29T13:34:33.254Z,12.00
2022-12-29T13:37:05.125Z,11.70
2022-12-29T13:39:38.169Z,11.80
2022-12-29T13:42:07.093Z,11.80
2022-12-29T13:44:40.952Z,11.80
2022-12-29T13:47:21.970Z,12.10
2022-12-29T13:49:52.307Z,12.00
2022-12-29T13:52:27.010Z,12.00
2022-12-29T13:55:04.308Z,12.00
2022-12-29T13:57:42.173Z,12.00
2022-12-29T14:00:18.538Z,12.00
2022-12-29T14:03:03.920Z,12.00
2022-12-29T14:05:33.891Z,12.70
2022-12-29T14:08:04.147Z,12.10
2022-12-29T14:10:36.295Z,12.20
2022-12-29T14:13:08.691Z,12.30
2022-12-29T14:15:42.443Z,12.40
2022-12-29T14:18:18.987Z,12.20
2022-12-29T14:20:57.860Z,12.10
2022-12-29T14:23:38.863Z,12.00
2022-12-29T14:26:16.729Z,11.90
2022-12-29T14:28:46.223Z,11.80
2022-12-29T14:31:42.279Z,11.70
2022-12-29T14:34:39.328Z,11.80
2022-12-29T14:37:25.766Z,11.70
2022-12-29T14:40:06.472Z,11.80
2022-12-29T14:42:35.236Z,11.60
2022-12-29T14:45:07.975Z,11.50
2022-12-29T14:47:41.286Z,11.50
2022-12-29T14:50:15.779Z,11.40
2022-12-29T14:52:49.101Z,11.40
2022-12-29T14:55:40.624Z,11.50
2022-12-29T14:58:17.141Z,11.30
2022-12-29T15:00:46.467Z,11.40
2022-12-29T15:03:22.474Z,11.20
2022-12-29T15:05:53.960Z,11.10
2022-12-29T15:08:26.429Z,11.10
2022-12-29T15:10:59.109Z,11.20
2022-12-29T15:13:35.155Z,11.20
2022-12-29T15:16:03.307Z,10.00
2022-12-29T15:18:34.797Z,11.80
2022-12-29T15:21:08.871Z,11.20
2022-12-29T15:23:39.414Z,11.20
2022-12-29T15:26:09.135Z,11.40
2022-12-29T15:28:42.357Z,11.60
2022-12-29T15:31:15.159Z,11.10
2022-12-29T15:33:48.303Z,11.30
2022-12-29T15:36:21.597Z,11.20
2022-12-29T15:38:50.799Z,11.30
2022-12-29T15:41:31.757Z,11.90
2022-12-29T15:44:12.688Z,11.40
2022-12-29T15:46:41.646Z,11.50
2022-12-29T15:49:11.559Z,11.50
2022-12-29T15:51:41.746Z,11.60
2022-12-29T15:54:19.560Z,11.50
2022-12-29T15:56:48.169Z,11.50
2022-12-29T15:59:26.817Z,11.50
2022-12-29T16:01:56.344Z,11.90
2022-12-29T16:04:27.571Z,11.40
2022-12-29T16:07:00.741Z,11.40
2022-12-29T16:09:33.215Z,11.40
2022-12-29T16:12:05.127Z,11.40
2022-12-29T16:14:39.105Z,11.50
2022-12-29T16:17:07.426Z,11.40
2022-12-29T16:19:39.649Z,11.50
2022-12-29T16:22:14.149Z,11.50
2022-12-29T16:24:42.685Z,11.50
2022-12-29T16:27:16.909Z,11.40
2022-12-29T16:29:45.463Z,11.10
2022-12-29T16:32:27.642Z,11.50
2022-12-29T16:35:15.540Z,11.50
2022-12-29T16:37:43.731Z,11.50
2022-12-29T16:40:39.830Z,11.40
2022-12-29T16:43:22.942Z,11.40
2022-12-29T16:46:26.769Z,11.40
2022-12-29T16:48:57.085Z,11.40
2022-12-29T16:51:32.700Z,11.40
2022-12-29T16:54:01.816Z,11.40
2022-12-29T16:56:32.611Z,11.40
2022-12-29T16:59:05.183Z,11.10
2022-12-29T17:01:33.748Z,11.50
2022-12-29T17:04:07.369Z,11.50
2022-12-29T17:06:36.923Z,11.80
2022-12-29T17:09:17.783Z,11.70
2022-12-29T17:12:05.000Z,11.40
2022-12-29T17:14:43.606Z,11.20
2022-12-29T17:17:20.918Z,11.00
2022-12-29T17:19:52.855Z,11.20
2022-12-29T17:22:26.245Z,11.10
2022-12-29T17:24:55.012Z,11.10
2022-12-29T17:27:27.286Z,11.00
2022-12-29T17:29:58.311Z,11.00
2022-12-29T17:32:26.658Z,11.20
2022-12-29T17:34:54.833Z,10.70
2022-12-29T17:37:35.041Z,10.70
2022-12-29T17:40:03.593Z,10.50
2022-12-29T17:42:33.675Z,10.40
2022-12-29T17:45:03.068Z,10.30
2022-12-29T17:47:31.161Z,10.80
2022-12-29T17:49:59.266Z,10.00
2022-12-29T17:52:28.809Z,10.20
2022-12-29T17:54:57.105Z,10.00
2022-12-29T17:57:25.266Z,9.90
2022-12-29T17:59:53.443Z,10.00
2022-12-29T18:02:27.795Z,10.00
2022-12-29T18:04:56.788Z,10.00
2022-12-29T18:07:31.002Z,9.90
2022-12-29T18:10:03.849Z,10.10
2022-12-29T18:12:34.979Z,10.00
2022-12-29T18:15:03.179Z,11.00
2022-12-29T18:17:31.317Z,9.90
2022-12-29T18:19:59.362Z,9.90
2022-12-29T18:22:30.191Z,9.80
2022-12-29T18:24:58.338Z,10.00
2022-12-29T18:27:28.972Z,9.50
2022-12-29T18:29:57.059Z,9.70
2022-12-29T18:32:25.196Z,9.60
2022-12-29T18:34:53.396Z,9.90
2022-12-29T18:37:21.507Z,9.90
2022-12-29T18:39:49.580Z,9.60
2022-12-29T18:42:19.040Z,9.60
2022-12-29T18:44:48.579Z,9.60
2022-12-29T18:47:16.764Z,9.60
2022-12-29T18:49:45.076Z,9.60
2022-12-29T18:52:14.797Z,9.50
2022-12-29T18:54:42.945Z,9.20
2022-12-29T18:57:11.008Z,9.70
2022-12-29T18:59:39.191Z,9.40
2022-12-29T19:02:14.704Z,9.80
2022-12-29T19:04:42.816Z,10.00
2022-12-29T19:07:10.964Z,9.60
2022-12-29T19:09:39.142Z,9.60
2022-12-29T19:12:07.500Z,9.80
2022-12-29T19:14:35.601Z,9.80
2022-12-29T19:17:03.724Z,9.70
2022-12-29T19:19:33.249Z,9.60
2022-12-29T19:22:01.427Z,9.80
2022-12-29T19:24:30.319Z,9.40
2022-12-29T19:26:58.777Z,9.70
2022-12-29T19:29:28.039Z,9.70
2022-12-29T19:31:56.339Z,9.70
2022-12-29T19:34:24.441Z,9.70
2022-12-29T19:36:54.259Z,9.80
2022-12-29T19:39:22.447Z,11.10
2022-12-29T19:41:50.607Z,9.60
2022-12-29T19:44:19.514Z,9.70
2022-12-29T19:46:47.675Z,9.20
2022-12-29T19:49:15.807Z,8.70
2022-12-29T19:51:43.950Z,9.20
2022-12-29T19:54:13.560Z,9.20
2022-12-29T19:56:44.324Z,9.00
2022-12-29T19:59:12.813Z,9.10
2022-12-29T20:01:41.067Z,9.00
2022-12-29T20:04:09.329Z,8.70
2022-12-29T20:06:37.482Z,8.90
2022-12-29T20:09:05.678Z,9.00
2022-12-29T20:11:36.236Z,9.00
2022-12-29T20:14:04.650Z,8.70
2022-12-29T20:16:33.519Z,9.00
2022-12-29T20:19:02.071Z,8.70
2022-12-29T20:21:30.182Z,8.90
2022-12-29T20:23:58.314Z,9.10
2022-12-29T20:26:28.996Z,8.60
2022-12-29T20:29:00.047Z,8.50
2022-12-29T20:31:30.717Z,7.60
2022-12-29T20:33:59.200Z,8.40
2022-12-29T20:36:29.888Z,7.90
2022-12-29T20:39:00.170Z,8.50
2022-12-29T20:41:31.043Z,8.30
2022-12-29T20:44:01.173Z,8.50
2022-12-29T20:46:36.474Z,8.50
2022-12-29T20:49:09.426Z,8.00
2022-12-29T20:52:04.542Z,8.30
2022-12-29T20:54:26.014Z,7.80
2022-12-29T20:56:54.401Z,8.10
2022-12-29T20:59:28.498Z,7.90
2022-12-29T21:02:00.267Z,7.50
2022-12-29T21:04:43.805Z,8.30
2022-12-29T21:07:20.180Z,7.40
2022-12-29T21:09:51.839Z,7.90
2022-12-29T21:12:25.374Z,7.90
2022-12-29T21:14:55.086Z,9.10
2022-12-29T21:17:23.275Z,7.90
2022-12-29T21:19:51.525Z,8.00
2022-12-29T21:22:19.654Z,8.40
2022-12-29T21:24:47.870Z,8.10
2022-12-29T21:27:16.055Z,8.00
2022-12-29T21:29:44.062Z,7.80
2022-12-29T21:32:13.441Z,7.80
2022-12-29T21:34:41.467Z,7.80
2022-12-29T21:37:09.521Z,7.80
2022-12-29T21:39:37.524Z,7.80
2022-12-29T21:42:05.955Z,7.80
2022-12-29T21:44:51.636Z,7.80
2022-12-29T21:47:20.987Z,7.80
2022-12-29T21:49:48.987Z,7.70
2022-12-29T21:52:16.975Z,7.60
2022-12-29T21:55:04.815Z,7.60
2022-12-29T21:57:46.888Z,7.60
2022-12-29T22:00:33.357Z,7.60
2022-12-29T22:03:23.375Z,7.70
2022-12-29T22:06:10.684Z,7.70
2022-12-29T22:08:56.931Z,7.80
2022-12-29T22:11:42.166Z,7.60
2022-12-29T22:14:10.354Z,7.80
2022-12-29T22:16:38.315Z,7.80
2022-12-29T22:19:08.838Z,7.80
2022-12-29T22:21:36.938Z,7.80
2022-12-29T22:24:05.253Z,7.80
2022-12-29T22:26:33.271Z,7.80
2022-12-29T22:29:01.341Z,7.70
2022-12-29T22:31:32.664Z,7.70
2022-12-29T22:34:03.578Z,7.70
2022-12-29T22:36:33.640Z,7.70
2022-12-29T22:39:01.630Z,7.70
2022-12-29T22:41:29.625Z,7.70
2022-12-29T22:43:57.613Z,7.70
2022-12-29T22:46:25.735Z,7.70
2022-12-29T22:48:53.863Z,7.70
2022-12-29T22:51:21.817Z,7.60
2022-12-29T22:53:51.742Z,7.60
2022-12-29T22:56:20.204Z,7.70
2022-12-29T22:58:49.483Z,7.60
2022-12-29T23:01:21.973Z,7.60
2022-12-29T23:03:50.719Z,7.60
2022-12-29T23:06:19.001Z,7.50
2022-12-29T23:08:47.967Z,7.50
2022-12-29T23:11:17.484Z,7.50
2022-12-29T23:13:46.105Z,7.50
2022-12-29T23:16:14.995Z,7.50
2022-12-29T23:18:43.459Z,7.50
2022-12-29T23:21:12.157Z,7.50
2022-12-29T23:23:56.110Z,7.50
2022-12-29T23:26:32.408Z,7.50
2022-12-29T23:29:01.456Z,7.50
2022-12-29T23:31:30.725Z,7.50
2022-12-29T23:33:58.997Z,7.50
2022-12-29T23:36:27.417Z,7.50
2022-12-29T23:38:55.708Z,7.50
2022-12-29T23:41:23.837Z,7.50
2022-12-29T23:43:53.278Z,7.50
2022-12-29T23:46:23.692Z,7.50
2022-12-29T23:48:52.205Z,7.50
2022-12-29T23:51:20.314Z,7.50
2022-12-29T23:53:48.939Z,7.60
2022-12-29T23:56:18.783Z,7.60
2022-12-29T23:58:46.898Z,7.70
